KSKA/SKA METAR and TAF weather

Enter ICAO airport designator
Station Type Date Time Source
KSKA METAR 2020/10/20 15:58 UTC NOAA

KSKA 201558Z 18005KT 10SM FEW200 03/03 A3013 RMK AO2A SLP217 T00330029 $


Station Type Date Time Source
KSKA Decoded METAR 2020/10/20 15:58 UTC NOAA

Fairchild Air Force Base, WA, United States (KSKA) 47-37N 117-39W
Oct 20, 2020 - 11:58 AM EDT / 2020.10.20 1558 UTC
Wind: from the S (180 degrees) at 6 MPH (5 KT):0
Visibility: 10 mile(s):0
Sky conditions: mostly clear
Temperature: 37.9 F (3.3 C)
Dew Point: 37.2 F (2.9 C)
Relative Humidity: 97%
Pressure (altimeter): 30.13 in. Hg (1020 hPa)
ob: KSKA 201558Z 18005KT 10SM FEW200 03/03 A3013 RMK AO2A SLP217 T00330029
cycle: 16

Station Type Date Time Source
KSKA TAF 2020/10/20 11:03 UTC NOAA

TAF KSKA 201100Z 2011/2117 23009KT 9999 SCT100 QNH2985INS
BECMG 2116/2117 27012G18KT 9999 SCT070 BKN100 QNH2982INS TX14/2023Z TN01/2012Z

Example: see airport list